createdAt,value
2022-10-22T00:01:06.779Z,7.50
2022-10-22T00:03:35.308Z,6.80
2022-10-22T00:06:03.657Z,7.47
2022-10-22T00:08:33.363Z,8.63
2022-10-22T00:11:09.572Z,7.70
2022-10-22T00:13:38.938Z,7.80
2022-10-22T00:16:07.840Z,7.93
2022-10-22T00:18:36.272Z,7.30
2022-10-22T00:21:04.645Z,6.77
2022-10-22T00:23:35.064Z,7.00
2022-10-22T00:26:03.391Z,7.60
2022-10-22T00:28:31.603Z,6.77
2022-10-22T00:31:01.071Z,7.97
2022-10-22T00:33:30.983Z,6.73
2022-10-22T00:35:59.585Z,8.27
2022-10-22T00:38:27.913Z,7.67
2022-10-22T00:40:57.723Z,8.17
2022-10-22T00:43:26.026Z,6.93
2022-10-22T00:45:55.330Z,9.47
2022-10-22T00:48:27.055Z,8.40
2022-10-22T00:50:58.007Z,8.13
2022-10-22T00:53:30.038Z,8.47
2022-10-22T00:56:00.231Z,8.17
2022-10-22T00:58:32.310Z,7.77
2022-10-22T01:01:01.251Z,9.30
2022-10-22T01:03:30.338Z,8.47
2022-10-22T01:06:00.860Z,8.20
2022-10-22T01:08:38.583Z,7.07
2022-10-22T01:11:20.962Z,8.37
2022-10-22T01:13:56.803Z,8.50
2022-10-22T01:16:35.223Z,8.43
2022-10-22T01:19:20.303Z,7.87
2022-10-22T01:21:53.527Z,7.87
2022-10-22T01:24:41.232Z,6.90
2022-10-22T01:27:31.094Z,7.97
2022-10-22T01:30:04.113Z,7.83
2022-10-22T01:32:37.939Z,7.50
2022-10-22T01:35:10.107Z,7.20
2022-10-22T01:37:43.357Z,6.53
2022-10-22T01:40:13.185Z,7.53
2022-10-22T01:42:41.358Z,7.27
2022-10-22T01:45:15.694Z,8.03
2022-10-22T01:47:53.226Z,8.47
2022-10-22T01:50:43.049Z,8.03
2022-10-22T01:53:26.754Z,8.60
2022-10-22T01:56:18.604Z,7.90
2022-10-22T01:58:56.586Z,7.53
2022-10-22T02:01:33.518Z,7.77
2022-10-22T02:04:11.585Z,8.53
2022-10-22T02:06:42.946Z,8.83
2022-10-22T02:09:17.179Z,7.57
2022-10-22T02:11:46.411Z,8.03
2022-10-22T02:14:18.074Z,7.80
2022-10-22T02:16:50.728Z,8.03
2022-10-22T02:19:25.687Z,7.17
2022-10-22T02:21:55.098Z,8.57
2022-10-22T02:24:24.051Z,7.53
2022-10-22T02:27:00.727Z,7.93
2022-10-22T02:29:36.371Z,8.37
2022-10-22T02:32:10.437Z,6.90
2022-10-22T02:34:39.053Z,6.50
2022-10-22T02:37:07.882Z,7.97
2022-10-22T02:39:37.858Z,9.20
2022-10-22T02:42:06.626Z,8.70
2022-10-22T02:44:34.932Z,7.90
2022-10-22T02:47:03.494Z,7.73
2022-10-22T02:49:33.168Z,7.87
2022-10-22T02:52:01.841Z,8.53
2022-10-22T02:54:30.022Z,6.77
2022-10-22T02:56:58.413Z,7.00
2022-10-22T02:59:26.733Z,7.20
2022-10-22T03:01:55.163Z,8.33
2022-10-22T03:04:23.466Z,7.80
2022-10-22T03:06:53.126Z,6.83
2022-10-22T03:09:24.071Z,6.50
2022-10-22T03:11:53.394Z,7.37
2022-10-22T03:14:21.726Z,6.37
2022-10-22T03:16:50.100Z,7.10
2022-10-22T03:19:18.438Z,7.37
2022-10-22T03:21:50.647Z,6.60
2022-10-22T03:24:27.023Z,7.63
2022-10-22T03:26:55.874Z,6.47
2022-10-22T03:29:26.490Z,7.57
2022-10-22T03:31:55.524Z,6.50
2022-10-22T03:34:23.712Z,7.20
2022-10-22T03:36:53.534Z,6.90
2022-10-22T03:39:24.990Z,6.33
2022-10-22T03:41:54.066Z,5.80
2022-10-22T03:44:23.720Z,5.77
2022-10-22T03:46:52.044Z,6.03
2022-10-22T03:49:20.310Z,5.87
2022-10-22T03:51:48.528Z,6.00
2022-10-22T03:54:17.437Z,6.50
2022-10-22T03:56:47.062Z,6.23
2022-10-22T03:59:15.617Z,5.80
2022-10-22T04:01:46.619Z,6.07
2022-10-22T04:04:14.954Z,5.77
2022-10-22T04:06:43.172Z,5.87
2022-10-22T04:09:11.533Z,5.33
2022-10-22T04:11:39.840Z,5.90
2022-10-22T04:14:09.491Z,7.70
2022-10-22T04:16:37.793Z,6.37
2022-10-22T04:19:06.030Z,5.80
2022-10-22T04:21:34.605Z,6.67
2022-10-22T04:24:03.044Z,8.27
2022-10-22T04:26:32.244Z,6.30
2022-10-22T04:29:00.532Z,5.83
2022-10-22T04:31:30.232Z,6.23
2022-10-22T04:34:00.349Z,6.70
2022-10-22T04:36:29.921Z,6.30
2022-10-22T04:39:00.106Z,5.60
2022-10-22T04:41:30.482Z,5.23
2022-10-22T04:43:59.720Z,5.80
2022-10-22T04:46:31.343Z,6.17
2022-10-22T04:48:59.598Z,5.90
2022-10-22T04:51:28.995Z,5.23
2022-10-22T04:53:57.637Z,5.10
2022-10-22T04:56:27.778Z,4.70
2022-10-22T04:58:58.823Z,5.17
2022-10-22T05:01:30.937Z,4.90
2022-10-22T05:04:01.130Z,6.03
2022-10-22T05:06:32.040Z,5.33
2022-10-22T05:09:02.069Z,6.10
2022-10-22T05:11:33.444Z,4.93
2022-10-22T05:14:05.389Z,5.50
2022-10-22T05:16:36.101Z,4.23
2022-10-22T05:19:04.677Z,4.40
2022-10-22T05:21:33.010Z,3.50
2022-10-22T05:24:01.372Z,4.00
2022-10-22T05:26:30.301Z,4.10
2022-10-22T05:28:58.783Z,4.20
2022-10-22T05:31:28.905Z,4.40
2022-10-22T05:33:58.620Z,4.10
2022-10-22T05:36:26.964Z,4.53
2022-10-22T05:38:55.600Z,3.77
2022-10-22T05:41:25.668Z,4.00
2022-10-22T05:43:56.959Z,3.97
2022-10-22T05:46:27.499Z,4.17
2022-10-22T05:48:59.646Z,3.90
2022-10-22T05:51:29.762Z,4.73
2022-10-22T05:53:59.283Z,4.33
2022-10-22T05:56:28.555Z,3.67
2022-10-22T05:58:58.257Z,3.47
2022-10-22T06:01:28.551Z,4.13
2022-10-22T06:03:59.251Z,3.87
2022-10-22T06:06:30.368Z,3.70
2022-10-22T06:09:02.457Z,3.87
2022-10-22T06:11:34.179Z,4.23
2022-10-22T06:14:03.640Z,4.30
2022-10-22T06:16:32.769Z,4.90
2022-10-22T06:19:03.106Z,4.23
2022-10-22T06:21:31.950Z,3.67
2022-10-22T06:24:01.609Z,4.23
2022-10-22T06:26:30.736Z,5.03
2022-10-22T06:28:59.325Z,4.03
2022-10-22T06:31:28.372Z,4.33
2022-10-22T06:33:57.929Z,3.90
2022-10-22T06:36:27.696Z,4.37
2022-10-22T06:38:57.191Z,4.07
2022-10-22T06:41:28.797Z,4.57
2022-10-22T06:43:58.567Z,4.53
2022-10-22T06:46:27.485Z,4.60
2022-10-22T06:48:59.254Z,5.37
2022-10-22T06:51:29.319Z,4.17
2022-10-22T06:53:58.689Z,4.87
2022-10-22T06:56:28.879Z,5.90
2022-10-22T06:58:58.964Z,4.07
2022-10-22T07:01:29.769Z,3.67
2022-10-22T07:03:58.547Z,3.87
2022-10-22T07:06:29.546Z,4.17
2022-10-22T07:08:59.697Z,6.63
2022-10-22T07:11:30.049Z,3.87
2022-10-22T07:13:59.958Z,4.00
2022-10-22T07:16:32.175Z,3.80
2022-10-22T07:19:01.487Z,4.97
2022-10-22T07:21:32.017Z,3.83
2022-10-22T07:24:00.548Z,4.00
2022-10-22T07:26:31.082Z,4.53
2022-10-22T07:29:00.099Z,3.77
2022-10-22T07:31:28.992Z,4.60
2022-10-22T07:33:57.357Z,3.73
2022-10-22T07:36:25.568Z,4.90
2022-10-22T07:38:58.467Z,5.17
2022-10-22T07:41:27.719Z,6.37
2022-10-22T07:43:56.031Z,5.40
2022-10-22T07:46:24.983Z,3.57
2022-10-22T07:48:53.575Z,3.63
2022-10-22T07:51:22.129Z,3.77
2022-10-22T07:53:50.568Z,3.33
2022-10-22T07:56:20.273Z,4.70
2022-10-22T07:58:48.649Z,3.40
2022-10-22T08:01:17.057Z,3.87
2022-10-22T08:03:45.775Z,3.77
2022-10-22T08:06:14.992Z,3.77
2022-10-22T08:08:43.604Z,3.57
2022-10-22T08:11:12.429Z,3.43
2022-10-22T08:13:45.349Z,3.40
2022-10-22T08:16:14.899Z,4.23
2022-10-22T08:18:43.335Z,3.23
2022-10-22T08:21:11.794Z,3.87
2022-10-22T08:23:40.255Z,4.20
2022-10-22T08:26:08.498Z,4.47
2022-10-22T08:28:37.903Z,4.57
2022-10-22T08:31:09.068Z,4.63
2022-10-22T08:33:39.549Z,4.10
2022-10-22T08:36:08.871Z,4.67
2022-10-22T08:38:37.444Z,4.23
2022-10-22T08:41:11.663Z,3.63
2022-10-22T08:44:05.736Z,4.73
2022-10-22T08:47:04.440Z,3.77
2022-10-22T08:49:39.862Z,4.37
2022-10-22T08:52:14.665Z,4.63
2022-10-22T08:54:52.430Z,4.23
2022-10-22T09:00:07.250Z,4.20
2022-10-22T09:02:48.413Z,4.37
2022-10-22T09:05:33.086Z,4.40
2022-10-22T09:08:01.514Z,4.33
2022-10-22T09:10:34.091Z,5.53
2022-10-22T09:13:02.445Z,5.50
2022-10-22T09:15:31.521Z,4.57
2022-10-22T09:18:17.956Z,4.97
2022-10-22T09:20:51.361Z,5.53
2022-10-22T09:23:30.641Z,5.20
2022-10-22T09:25:59.315Z,5.20
2022-10-22T09:28:27.644Z,5.73
2022-10-22T09:30:56.009Z,5.70
2022-10-22T09:33:28.962Z,5.37
2022-10-22T09:35:59.660Z,6.80
2022-10-22T09:38:29.678Z,4.70
2022-10-22T09:40:59.722Z,4.80
2022-10-22T09:43:28.333Z,5.23
2022-10-22T09:46:01.954Z,4.67
2022-10-22T09:48:34.750Z,5.63
2022-10-22T09:51:07.935Z,5.23
2022-10-22T09:53:40.682Z,4.90
2022-10-22T09:56:26.662Z,4.90
2022-10-22T09:58:57.802Z,4.93
2022-10-22T10:01:30.936Z,4.97
2022-10-22T10:04:09.822Z,5.07
2022-10-22T10:06:40.586Z,4.67
2022-10-22T10:09:17.113Z,5.63
2022-10-22T10:11:49.917Z,6.23
2022-10-22T10:14:23.227Z,5.57
2022-10-22T10:16:59.816Z,5.70
2022-10-22T10:20:01.409Z,5.97
2022-10-22T10:22:45.481Z,6.20
2022-10-22T10:25:33.756Z,5.93
2022-10-22T10:28:13.895Z,5.37
2022-10-22T10:30:48.459Z,6.10
2022-10-22T10:33:25.137Z,5.87
2022-10-22T10:36:03.371Z,6.17
2022-10-22T10:38:40.577Z,6.90
2022-10-22T10:41:18.834Z,8.20
2022-10-22T10:44:00.982Z,8.25
2022-10-22T10:46:41.068Z,8.52
2022-10-22T10:49:12.022Z,7.85
2022-10-22T10:51:51.793Z,8.18
2022-10-22T10:54:36.632Z,8.10
2022-10-22T10:57:13.262Z,7.53
2022-10-22T10:59:52.529Z,8.23
2022-10-22T11:02:50.812Z,8.18
2022-10-22T11:05:39.930Z,7.85
2022-10-22T11:08:15.574Z,8.07
2022-10-22T11:10:47.661Z,8.02
2022-10-22T11:13:25.509Z,7.75
2022-10-22T11:15:59.655Z,6.85
2022-10-22T11:18:33.612Z,7.18
2022-10-22T11:21:19.016Z,7.82
2022-10-22T11:23:54.679Z,8.18
2022-10-22T11:26:33.508Z,8.05
2022-10-22T11:29:04.909Z,7.72
2022-10-22T11:31:33.817Z,8.25
2022-10-22T11:34:32.024Z,9.23
2022-10-22T11:36:57.432Z,10.95
2022-10-22T11:39:35.093Z,11.75
2022-10-22T11:42:06.131Z,11.45
2022-10-22T11:44:47.547Z,12.25
2022-10-22T11:47:21.402Z,14.35
2022-10-22T11:49:59.107Z,16.20
2022-10-22T11:52:39.779Z,20.38
2022-10-22T11:55:33.426Z,18.20
2022-10-22T11:58:02.963Z,20.98
2022-10-22T12:00:40.814Z,21.80
2022-10-22T12:03:18.283Z,22.17
2022-10-22T12:05:47.534Z,20.02
2022-10-22T12:08:24.602Z,20.80
2022-10-22T12:11:06.784Z,17.63
2022-10-22T12:13:58.659Z,17.08
2022-10-22T12:16:50.689Z,16.70
2022-10-22T12:19:19.756Z,16.00
2022-10-22T12:21:53.625Z,16.95
2022-10-22T12:24:24.444Z,16.27
2022-10-22T12:26:54.131Z,16.55
2022-10-22T12:29:25.673Z,14.65
2022-10-22T12:31:55.196Z,16.67
2022-10-22T12:34:25.487Z,16.08
2022-10-22T12:36:55.125Z,16.08
2022-10-22T12:39:27.776Z,14.00
2022-10-22T12:41:57.530Z,11.32
2022-10-22T12:44:25.723Z,9.45
2022-10-22T12:46:57.026Z,10.27
2022-10-22T12:49:40.454Z,9.60
2022-10-22T12:52:16.099Z,9.75
2022-10-22T12:54:48.326Z,9.98
2022-10-22T12:57:20.288Z,8.10
2022-10-22T12:59:51.200Z,7.60
2022-10-22T13:02:24.634Z,8.00
2022-10-22T13:05:17.281Z,7.78
2022-10-22T13:07:49.830Z,8.65
2022-10-22T13:10:26.448Z,6.28
2022-10-22T13:12:59.046Z,5.70
2022-10-22T13:15:37.630Z,5.60
2022-10-22T13:18:08.407Z,5.20
2022-10-22T13:20:38.606Z,5.72
2022-10-22T13:23:07.740Z,4.82
2022-10-22T13:25:38.734Z,5.00
2022-10-22T13:28:21.742Z,4.05
2022-10-22T13:30:55.576Z,5.47
2022-10-22T13:33:27.479Z,5.10
2022-10-22T13:35:57.343Z,4.30
2022-10-22T13:38:29.190Z,4.22
2022-10-22T13:40:58.745Z,4.88
2022-10-22T13:43:28.424Z,5.30
2022-10-22T13:46:00.050Z,5.00
2022-10-22T13:48:30.219Z,5.28
2022-10-22T13:50:58.628Z,4.72
2022-10-22T13:53:29.249Z,6.13
2022-10-22T13:55:57.707Z,5.50
2022-10-22T13:58:26.169Z,5.60
2022-10-22T14:00:58.289Z,5.07
2022-10-22T14:03:31.430Z,5.63
2022-10-22T14:05:59.743Z,5.72
2022-10-22T14:08:29.155Z,6.05
2022-10-22T14:10:57.597Z,6.13
2022-10-22T14:13:26.740Z,6.10
2022-10-22T14:15:56.595Z,7.47
2022-10-22T14:18:31.643Z,7.65
2022-10-22T14:21:04.869Z,7.38
2022-10-22T14:23:35.199Z,6.93
2022-10-22T14:26:03.839Z,7.35
2022-10-22T14:28:41.010Z,6.80
2022-10-22T14:31:12.544Z,9.20
2022-10-22T14:33:41.311Z,8.82
2022-10-22T14:36:10.926Z,8.30
2022-10-22T14:38:39.359Z,8.15
2022-10-22T14:41:19.322Z,7.88
2022-10-22T14:43:47.662Z,8.02
2022-10-22T14:46:18.801Z,6.97
2022-10-22T14:48:48.459Z,6.10
2022-10-22T14:51:19.803Z,6.53
2022-10-22T14:53:48.412Z,6.22
2022-10-22T14:56:21.369Z,6.55
2022-10-22T14:58:50.105Z,7.10
2022-10-22T15:01:19.754Z,8.57
2022-10-22T15:03:48.062Z,9.18
2022-10-22T15:06:16.371Z,8.43
2022-10-22T15:08:46.021Z,7.65
2022-10-22T15:11:14.963Z,8.20
2022-10-22T15:13:43.772Z,7.35
2022-10-22T15:16:14.465Z,7.55
2022-10-22T15:18:44.188Z,6.95
2022-10-22T15:21:16.950Z,7.80
2022-10-22T15:23:45.335Z,6.88
2022-10-22T15:26:15.026Z,8.07
2022-10-22T15:28:44.074Z,7.13
2022-10-22T15:31:15.187Z,7.60
2022-10-22T15:33:45.934Z,7.85
2022-10-22T15:36:17.988Z,8.15
2022-10-22T15:38:46.309Z,8.30
2022-10-22T15:41:14.538Z,7.85
2022-10-22T15:43:42.849Z,7.72
2022-10-22T15:46:14.260Z,6.85
2022-10-22T15:48:43.038Z,7.03
2022-10-22T15:51:14.990Z,7.65
2022-10-22T15:53:43.693Z,7.03
2022-10-22T15:56:12.884Z,7.07
2022-10-22T15:58:41.551Z,7.10
2022-10-22T16:01:12.105Z,7.82
2022-10-22T16:03:41.052Z,7.43
2022-10-22T16:06:09.948Z,7.60
2022-10-22T16:08:40.383Z,6.93
2022-10-22T16:11:08.723Z,7.10
2022-10-22T16:13:38.065Z,7.30
2022-10-22T16:16:08.296Z,7.05
2022-10-22T16:18:36.654Z,8.35
2022-10-22T16:21:05.121Z,7.88
2022-10-22T16:23:35.127Z,7.93
2022-10-22T16:26:04.911Z,8.75
2022-10-22T16:31:06.079Z,8.10
2022-10-22T16:33:41.426Z,7.93
2022-10-22T16:36:14.154Z,6.97
2022-10-22T16:38:44.358Z,8.68
2022-10-22T16:41:17.442Z,7.72
2022-10-22T16:43:48.517Z,8.55
2022-10-22T16:46:19.858Z,8.23
2022-10-22T16:48:51.658Z,8.25
2022-10-22T16:51:24.861Z,7.93
2022-10-22T16:53:55.757Z,7.95
2022-10-22T16:56:26.788Z,7.53
2022-10-22T16:58:56.957Z,8.10
2022-10-22T17:01:27.076Z,7.82
2022-10-22T17:03:55.983Z,9.50
2022-10-22T17:06:26.382Z,8.18
2022-10-22T17:08:54.822Z,9.07
2022-10-22T17:11:25.578Z,12.00
2022-10-22T17:13:55.414Z,10.73
2022-10-22T17:16:25.516Z,8.87
2022-10-22T17:18:55.487Z,8.27
2022-10-22T17:21:24.827Z,9.07
2022-10-22T17:23:56.723Z,6.90
2022-10-22T17:26:27.830Z,8.77
2022-10-22T17:28:56.321Z,8.00
2022-10-22T17:31:27.081Z,6.93
2022-10-22T17:33:57.468Z,7.13
2022-10-22T17:36:30.488Z,7.73
2022-10-22T17:39:05.880Z,8.10
2022-10-22T17:41:37.749Z,7.90
2022-10-22T17:44:15.080Z,7.57
2022-10-22T17:46:50.785Z,7.10
2022-10-22T17:49:25.419Z,7.47
2022-10-22T17:51:53.813Z,8.17
2022-10-22T17:54:22.018Z,8.30
2022-10-22T17:56:52.793Z,7.40
2022-10-22T17:59:22.086Z,7.17
2022-10-22T18:01:50.693Z,6.87
2022-10-22T18:04:22.675Z,7.03
2022-10-22T18:06:54.184Z,7.47
2022-10-22T18:09:22.738Z,6.93
2022-10-22T18:11:54.237Z,7.00
2022-10-22T18:14:24.158Z,6.77
2022-10-22T18:16:52.520Z,6.57
2022-10-22T18:19:24.714Z,6.57
2022-10-22T18:21:53.224Z,7.33
2022-10-22T18:24:21.541Z,7.10
2022-10-22T18:26:49.962Z,6.83
2022-10-22T18:29:20.818Z,7.47
2022-10-22T18:31:50.007Z,6.90
2022-10-22T18:34:21.563Z,7.53
2022-10-22T18:36:52.128Z,7.63
2022-10-22T18:39:20.584Z,6.60
2022-10-22T18:41:49.015Z,6.43
2022-10-22T18:44:18.035Z,7.40
2022-10-22T18:46:47.795Z,7.67
2022-10-22T18:49:19.365Z,7.10
2022-10-22T18:51:48.923Z,7.30
2022-10-22T18:54:24.894Z,7.50
2022-10-22T18:56:53.738Z,7.53
2022-10-22T18:59:24.319Z,7.47
2022-10-22T19:01:55.490Z,8.82
2022-10-22T19:04:23.765Z,8.27
2022-10-22T19:06:52.994Z,7.23
2022-10-22T19:09:21.338Z,7.60
2022-10-22T19:11:49.856Z,6.90
2022-10-22T19:14:19.668Z,6.90
2022-10-22T19:16:48.146Z,7.33
2022-10-22T19:19:20.478Z,7.60
2022-10-22T19:21:49.406Z,7.43
2022-10-22T19:24:19.404Z,7.70
2022-10-22T19:26:48.805Z,7.70
2022-10-22T19:29:19.058Z,8.87
2022-10-22T19:31:48.116Z,7.83
2022-10-22T19:34:17.900Z,7.53
2022-10-22T19:36:46.284Z,8.23
2022-10-22T19:39:16.323Z,8.20
2022-10-22T19:41:44.822Z,8.67
2022-10-22T19:44:13.143Z,9.20
2022-10-22T19:46:41.492Z,10.03
2022-10-22T19:49:12.582Z,9.43
2022-10-22T19:51:42.440Z,9.73
2022-10-22T19:54:18.549Z,8.27
2022-10-22T19:56:47.756Z,8.53
2022-10-22T19:59:17.104Z,7.93
2022-10-22T20:01:45.349Z,8.47
2022-10-22T20:04:16.878Z,9.37
2022-10-22T20:06:47.057Z,8.90
2022-10-22T20:09:15.489Z,9.23
2022-10-22T20:11:44.066Z,8.93
2022-10-22T20:14:14.097Z,9.90
2022-10-22T20:16:42.983Z,9.47
2022-10-22T20:19:16.018Z,12.10
2022-10-22T20:21:48.584Z,11.60
2022-10-22T20:24:17.026Z,9.37
2022-10-22T20:26:47.336Z,10.27
2022-10-22T20:29:16.311Z,10.63
2022-10-22T20:31:44.623Z,10.63
2022-10-22T20:34:12.972Z,11.13
2022-10-22T20:36:41.795Z,10.70
2022-10-22T20:39:15.608Z,11.30
2022-10-22T20:41:43.874Z,10.83
2022-10-22T20:44:15.383Z,12.77
2022-10-22T20:46:44.547Z,11.33
2022-10-22T20:49:16.011Z,12.47
2022-10-22T20:51:44.959Z,13.60
2022-10-22T20:54:16.581Z,12.67
2022-10-22T20:56:47.994Z,11.93
2022-10-22T20:59:16.659Z,12.23
2022-10-22T21:01:48.869Z,10.60
2022-10-22T21:04:18.189Z,11.67
2022-10-22T21:06:48.537Z,11.77
2022-10-22T21:09:18.244Z,10.47
2022-10-22T21:11:47.025Z,10.70
2022-10-22T21:14:17.211Z,10.83
2022-10-22T21:16:49.383Z,10.00
2022-10-22T21:19:19.298Z,10.20
2022-10-22T21:21:47.605Z,11.97
2022-10-22T21:24:17.336Z,13.37
2022-10-22T21:26:45.787Z,12.10
2022-10-22T21:29:14.307Z,11.97
2022-10-22T21:31:43.355Z,11.47
2022-10-22T21:34:13.089Z,12.23
2022-10-22T21:36:41.723Z,11.27
2022-10-22T21:39:10.049Z,11.13
2022-10-22T21:41:39.755Z,11.50
2022-10-22T21:44:08.227Z,12.93
2022-10-22T21:46:36.773Z,11.80
2022-10-22T21:49:05.618Z,11.60
2022-10-22T21:51:38.171Z,12.37
2022-10-22T21:54:06.720Z,11.50
2022-10-22T21:56:36.588Z,12.53
2022-10-22T21:59:07.782Z,11.47
2022-10-22T22:01:36.805Z,8.73
2022-10-22T22:04:05.226Z,10.30
2022-10-22T22:06:35.147Z,10.87
2022-10-22T22:09:04.393Z,10.80
2022-10-22T22:11:32.953Z,10.27
2022-10-22T22:14:01.239Z,10.07
2022-10-22T22:16:33.535Z,10.97
2022-10-22T22:19:05.878Z,12.43
2022-10-22T22:21:34.999Z,11.47
2022-10-22T22:24:04.182Z,11.87
2022-10-22T22:26:33.014Z,11.57
2022-10-22T22:29:01.783Z,11.80
2022-10-22T22:31:33.209Z,11.60
2022-10-22T22:34:03.763Z,11.17
2022-10-22T22:36:35.652Z,12.00
2022-10-22T22:39:06.606Z,12.80
2022-10-22T22:41:36.020Z,13.10
2022-10-22T22:44:04.487Z,12.93
2022-10-22T22:46:34.178Z,12.60
2022-10-22T22:49:03.578Z,12.57
2022-10-22T22:51:32.414Z,13.57
2022-10-22T22:54:01.315Z,12.57
2022-10-22T22:56:31.919Z,12.87
2022-10-22T22:59:00.213Z,12.47
2022-10-22T23:01:30.265Z,12.83
2022-10-22T23:04:02.130Z,12.83
2022-10-22T23:06:32.871Z,13.00
2022-10-22T23:09:01.293Z,12.20
2022-10-22T23:11:30.160Z,12.93
2022-10-22T23:14:00.525Z,13.40
2022-10-22T23:16:31.109Z,12.77
2022-10-22T23:19:01.870Z,13.87
2022-10-22T23:21:32.249Z,13.23
2022-10-22T23:24:02.683Z,13.03
2022-10-22T23:26:33.467Z,11.77
2022-10-22T23:29:03.219Z,12.77
2022-10-22T23:31:31.544Z,14.10
2022-10-22T23:34:01.854Z,12.87
2022-10-22T23:36:30.431Z,13.03
2022-10-22T23:38:58.685Z,12.43
2022-10-22T23:41:26.934Z,12.57
2022-10-22T23:43:55.230Z,12.17
2022-10-22T23:46:23.482Z,12.33
2022-10-22T23:48:53.863Z,12.47
2022-10-22T23:51:23.992Z,12.40
2022-10-22T23:53:57.291Z,11.90
2022-10-22T23:56:25.987Z,12.83
2022-10-22T23:58:55.122Z,13.17
